sensor_id;sensor_type;location;lat;lon;timestamp;P1;P2;P0
29460;PMS7003;16428;47.836;35.106;2023-04-29T00:01:58;2.75;1.25;1.00
29460;PMS7003;16428;47.836;35.106;2023-04-29T00:04:26;0.00;0.00;0.00
29460;PMS7003;16428;47.836;35.106;2023-04-29T00:06:54;1.00;1.00;1.00
29460;PMS7003;16428;47.836;35.106;2023-04-29T00:09:21;1.00;1.00;0.67
29460;PMS7003;16428;47.836;35.106;2023-04-29T00:11:49;2.00;2.00;1.67
29460;PMS7003;16428;47.836;35.106;2023-04-29T00:14:17;0.00;0.00;0.00
29460;PMS7003;16428;47.836;35.106;2023-04-29T00:16:45;1.00;1.00;0.50
29460;PMS7003;16428;47.836;35.106;2023-04-29T00:19:13;1.00;1.00;1.00
29460;PMS7003;16428;47.836;35.106;2023-04-29T00:21:40;1.00;1.00;1.00
29460;PMS7003;16428;47.836;35.106;2023-04-29T00:24:08;1.25;1.25;1.25
29460;PMS7003;16428;47.836;35.106;2023-04-29T00:26:35;1.00;1.00;1.00
29460;PMS7003;16428;47.836;35.106;2023-04-29T00:29:03;1.00;1.00;0.50
29460;PMS7003;16428;47.836;35.106;2023-04-29T00:31:31;3.67;2.33;2.00
29460;PMS7003;16428;47.836;35.106;2023-04-29T00:33:59;2.25;2.25;2.25
29460;PMS7003;16428;47.836;35.106;2023-04-29T00:36:26;1.67;1.33;1.00
29460;PMS7003;16428;47.836;35.106;2023-04-29T00:38:54;1.33;0.67;0.67
29460;PMS7003;16428;47.836;35.106;2023-04-29T00:41:21;3.00;1.67;1.00
29460;PMS7003;16428;47.836;35.106;2023-04-29T00:43:49;1.25;1.25;1.00
29460;PMS7003;16428;47.836;35.106;2023-04-29T00:46:18;4.00;2.00;1.25
29460;PMS7003;16428;47.836;35.106;2023-04-29T00:48:45;3.50;1.00;1.00
29460;PMS7003;16428;47.836;35.106;2023-04-29T00:51:13;3.00;0.67;0.67
29460;PMS7003;16428;47.836;35.106;2023-04-29T00:53:43;1.00;1.00;1.00
29460;PMS7003;16428;47.836;35.106;2023-04-29T00:56:11;1.67;1.67;1.67
29460;PMS7003;16428;47.836;35.106;2023-04-29T00:58:40;1.00;1.00;1.00
29460;PMS7003;16428;47.836;35.106;2023-04-29T01:01:15;1.00;1.00;1.00
29460;PMS7003;16428;47.836;35.106;2023-04-29T01:03:43;1.75;1.75;1.75
29460;PMS7003;16428;47.836;35.106;2023-04-29T01:15:51;2.00;2.00;1.00
29460;PMS7003;16428;47.836;35.106;2023-04-29T01:17:58;1.00;1.00;1.00
29460;PMS7003;16428;47.836;35.106;2023-04-29T01:20:31;1.50;1.50;1.00
29460;PMS7003;16428;47.836;35.106;2023-04-29T01:22:59;1.00;1.00;1.00
29460;PMS7003;16428;47.836;35.106;2023-04-29T01:25:27;0.00;0.00;0.00
29460;PMS7003;16428;47.836;35.106;2023-04-29T01:33:16;1.75;1.75;1.25
29460;PMS7003;16428;47.836;35.106;2023-04-29T01:39:15;1.00;1.00;1.00
29460;PMS7003;16428;47.836;35.106;2023-04-29T01:45:02;1.00;1.00;1.00
29460;PMS7003;16428;47.836;35.106;2023-04-29T01:47:33;1.00;1.00;1.00
29460;PMS7003;16428;47.836;35.106;2023-04-29T01:50:03;1.00;1.00;1.00
29460;PMS7003;16428;47.836;35.106;2023-04-29T01:52:31;1.00;1.00;1.00
29460;PMS7003;16428;47.836;35.106;2023-04-29T01:54:59;3.33;2.00;1.00
29460;PMS7003;16428;47.836;35.106;2023-04-29T01:57:26;0.75;0.75;0.50
29460;PMS7003;16428;47.836;35.106;2023-04-29T01:59:53;1.75;1.75;1.00
29460;PMS7003;16428;47.836;35.106;2023-04-29T02:02:23;1.00;1.00;1.00
29460;PMS7003;16428;47.836;35.106;2023-04-29T02:04:51;2.00;2.00;1.75
29460;PMS7003;16428;47.836;35.106;2023-04-29T02:07:19;0.25;0.25;0.25
29460;PMS7003;16428;47.836;35.106;2023-04-29T02:09:46;1.00;1.00;0.67
29460;PMS7003;16428;47.836;35.106;2023-04-29T02:12:14;1.25;1.00;1.00
29460;PMS7003;16428;47.836;35.106;2023-04-29T02:14:41;1.00;1.00;1.00
29460;PMS7003;16428;47.836;35.106;2023-04-29T02:17:09;0.25;0.25;0.00
29460;PMS7003;16428;47.836;35.106;2023-04-29T02:19:37;1.00;1.00;1.00
29460;PMS7003;16428;47.836;35.106;2023-04-29T02:22:04;0.00;0.00;0.00
29460;PMS7003;16428;47.836;35.106;2023-04-29T02:24:32;3.00;1.00;1.00
29460;PMS7003;16428;47.836;35.106;2023-04-29T02:26:59;0.00;0.00;0.00
29460;PMS7003;16428;47.836;35.106;2023-04-29T02:29:26;1.00;1.00;1.00
29460;PMS7003;16428;47.836;35.106;2023-04-29T02:31:55;3.67;1.00;1.00
29460;PMS7003;16428;47.836;35.106;2023-04-29T02:34:23;1.75;1.00;1.00
29460;PMS7003;16428;47.836;35.106;2023-04-29T02:36:50;2.00;2.00;1.50
29460;PMS7003;16428;47.836;35.106;2023-04-29T02:39:18;1.00;1.00;1.00
29460;PMS7003;16428;47.836;35.106;2023-04-29T02:41:46;1.00;1.00;1.00
29460;PMS7003;16428;47.836;35.106;2023-04-29T02:44:13;2.50;1.50;1.00
29460;PMS7003;16428;47.836;35.106;2023-04-29T02:46:41;0.75;0.75;0.75
29460;PMS7003;16428;47.836;35.106;2023-04-29T02:49:12;1.00;1.00;1.00
29460;PMS7003;16428;47.836;35.106;2023-04-29T02:51:40;0.25;0.25;0.00
29460;PMS7003;16428;47.836;35.106;2023-04-29T02:54:08;0.00;0.00;0.00
29460;PMS7003;16428;47.836;35.106;2023-04-29T02:56:37;1.00;1.00;1.00
29460;PMS7003;16428;47.836;35.106;2023-04-29T02:59:04;0.00;0.00;0.00
29460;PMS7003;16428;47.836;35.106;2023-04-29T03:01:33;0.25;0.25;0.25
29460;PMS7003;16428;47.836;35.106;2023-04-29T03:04:00;1.00;1.00;0.00
29460;PMS7003;16428;47.836;35.106;2023-04-29T03:06:29;2.00;2.00;1.00
29460;PMS7003;16428;47.836;35.106;2023-04-29T03:08:57;3.33;3.33;3.00
29460;PMS7003;16428;47.836;35.106;2023-04-29T03:11:24;2.33;2.33;2.00
29460;PMS7003;16428;47.836;35.106;2023-04-29T03:13:51;2.50;2.50;2.25
29460;PMS7003;16428;47.836;35.106;2023-04-29T03:16:20;1.50;1.50;1.50
29460;PMS7003;16428;47.836;35.106;2023-04-29T03:18:48;2.00;2.00;2.00
29460;PMS7003;16428;47.836;35.106;2023-04-29T03:21:15;1.00;1.00;1.00
29460;PMS7003;16428;47.836;35.106;2023-04-29T03:23:43;9.67;4.67;4.33
29460;PMS7003;16428;47.836;35.106;2023-04-29T03:26:11;2.00;2.00;2.00
29460;PMS7003;16428;47.836;35.106;2023-04-29T03:28:38;4.00;4.00;3.00
29460;PMS7003;16428;47.836;35.106;2023-04-29T03:31:05;4.00;1.33;1.33
29460;PMS7003;16428;47.836;35.106;2023-04-29T03:33:33;3.00;3.00;2.00
29460;PMS7003;16428;47.836;35.106;2023-04-29T03:36:01;3.00;2.33;2.00
29460;PMS7003;16428;47.836;35.106;2023-04-29T03:38:29;2.00;2.00;1.67
29460;PMS7003;16428;47.836;35.106;2023-04-29T03:40:56;1.00;1.00;1.00
29460;PMS7003;16428;47.836;35.106;2023-04-29T03:43:24;2.33;2.33;2.00
29460;PMS7003;16428;47.836;35.106;2023-04-29T03:45:51;2.00;2.00;1.00
29460;PMS7003;16428;47.836;35.106;2023-04-29T03:48:19;1.67;1.67;1.67
29460;PMS7003;16428;47.836;35.106;2023-04-29T03:50:47;3.00;3.00;2.00
29460;PMS7003;16428;47.836;35.106;2023-04-29T03:53:14;2.33;2.33;2.00
29460;PMS7003;16428;47.836;35.106;2023-04-29T03:55:42;1.50;1.50;1.50
29460;PMS7003;16428;47.836;35.106;2023-04-29T03:58:10;1.00;1.00;1.00
29460;PMS7003;16428;47.836;35.106;2023-04-29T04:00:37;3.00;3.00;3.00
29460;PMS7003;16428;47.836;35.106;2023-04-29T04:03:04;4.00;4.00;3.00
29460;PMS7003;16428;47.836;35.106;2023-04-29T04:05:32;2.33;2.33;2.33
29460;PMS7003;16428;47.836;35.106;2023-04-29T04:08:00;3.00;3.00;3.00
29460;PMS7003;16428;47.836;35.106;2023-04-29T04:10:27;3.00;3.00;3.00
29460;PMS7003;16428;47.836;35.106;2023-04-29T04:16:30;5.00;5.00;4.33
29460;PMS7003;16428;47.836;35.106;2023-04-29T04:21:53;7.00;2.67;2.67
29460;PMS7003;16428;47.836;35.106;2023-04-29T04:24:21;3.67;3.67;3.00
29460;PMS7003;16428;47.836;35.106;2023-04-29T04:26:49;4.67;4.00;3.67
29460;PMS7003;16428;47.836;35.106;2023-04-29T04:34:36;3.00;3.00;3.00
29460;PMS7003;16428;47.836;35.106;2023-04-29T04:37:05;1.33;1.33;1.33
29460;PMS7003;16428;47.836;35.106;2023-04-29T04:39:32;5.00;3.00;2.33
29460;PMS7003;16428;47.836;35.106;2023-04-29T04:42:00;2.67;2.67;2.00
29460;PMS7003;16428;47.836;35.106;2023-04-29T04:44:29;2.33;2.33;2.00
29460;PMS7003;16428;47.836;35.106;2023-04-29T04:46:57;2.67;2.67;2.67
29460;PMS7003;16428;47.836;35.106;2023-04-29T04:49:27;2.33;2.33;2.00
29460;PMS7003;16428;47.836;35.106;2023-04-29T04:51:54;1.50;1.50;1.50
29460;PMS7003;16428;47.836;35.106;2023-04-29T04:54:22;1.00;1.00;1.00
29460;PMS7003;16428;47.836;35.106;2023-04-29T04:56:49;2.67;2.00;2.00
29460;PMS7003;16428;47.836;35.106;2023-04-29T04:59:18;2.00;2.00;2.00
29460;PMS7003;16428;47.836;35.106;2023-04-29T05:01:45;2.00;2.00;2.00
29460;PMS7003;16428;47.836;35.106;2023-04-29T05:04:13;2.00;2.00;2.00
29460;PMS7003;16428;47.836;35.106;2023-04-29T05:06:41;3.00;3.00;2.33
29460;PMS7003;16428;47.836;35.106;2023-04-29T05:09:09;4.33;2.67;2.00
29460;PMS7003;16428;47.836;35.106;2023-04-29T05:11:36;3.00;1.33;1.33
29460;PMS7003;16428;47.836;35.106;2023-04-29T05:14:04;3.75;1.00;1.00
29460;PMS7003;16428;47.836;35.106;2023-04-29T05:16:31;2.25;1.75;1.75
29460;PMS7003;16428;47.836;35.106;2023-04-29T05:18:59;2.25;2.25;1.75
29460;PMS7003;16428;47.836;35.106;2023-04-29T05:21:26;2.75;2.75;2.00
29460;PMS7003;16428;47.836;35.106;2023-04-29T05:23:54;2.00;2.00;1.33
29460;PMS7003;16428;47.836;35.106;2023-04-29T05:26:21;2.25;2.25;2.00
29460;PMS7003;16428;47.836;35.106;2023-04-29T05:28:49;3.00;3.00;2.50
29460;PMS7003;16428;47.836;35.106;2023-04-29T05:31:16;16.00;13.67;11.00
29460;PMS7003;16428;47.836;35.106;2023-04-29T05:33:44;4.75;4.75;3.75
29460;PMS7003;16428;47.836;35.106;2023-04-29T05:36:11;4.25;4.00;3.75
29460;PMS7003;16428;47.836;35.106;2023-04-29T05:38:38;3.25;3.25;3.00
29460;PMS7003;16428;47.836;35.106;2023-04-29T05:41:06;3.75;3.75;2.75
29460;PMS7003;16428;47.836;35.106;2023-04-29T05:43:33;3.00;3.00;2.75
29460;PMS7003;16428;47.836;35.106;2023-04-29T05:46:02;4.25;4.25;4.00
29460;PMS7003;16428;47.836;35.106;2023-04-29T05:48:30;5.50;4.25;4.00
29460;PMS7003;16428;47.836;35.106;2023-04-29T05:50:58;3.75;3.75;3.00
29460;PMS7003;16428;47.836;35.106;2023-04-29T05:53:26;6.00;4.33;4.33
29460;PMS7003;16428;47.836;35.106;2023-04-29T05:55:53;4.67;4.67;3.67
29460;PMS7003;16428;47.836;35.106;2023-04-29T05:58:20;8.00;7.00;6.00
29460;PMS7003;16428;47.836;35.106;2023-04-29T06:00:48;8.00;3.00;2.00
29460;PMS7003;16428;47.836;35.106;2023-04-29T06:03:15;10.33;9.67;8.33
29460;PMS7003;16428;47.836;35.106;2023-04-29T06:05:43;8.50;6.50;5.50
29460;PMS7003;16428;47.836;35.106;2023-04-29T06:08:11;9.75;9.00;7.00
29460;PMS7003;16428;47.836;35.106;2023-04-29T06:10:39;4.50;4.50;4.00
29460;PMS7003;16428;47.836;35.106;2023-04-29T06:13:06;5.75;5.75;4.00
29460;PMS7003;16428;47.836;35.106;2023-04-29T06:15:33;4.75;4.25;3.00
29460;PMS7003;16428;47.836;35.106;2023-04-29T06:18:01;6.50;6.00;4.00
29460;PMS7003;16428;47.836;35.106;2023-04-29T06:20:29;7.25;5.00;4.00
29460;PMS7003;16428;47.836;35.106;2023-04-29T06:22:56;4.75;4.75;4.00
29460;PMS7003;16428;47.836;35.106;2023-04-29T06:25:24;5.50;5.00;4.50
29460;PMS7003;16428;47.836;35.106;2023-04-29T06:27:51;8.00;6.00;5.50
29460;PMS7003;16428;47.836;35.106;2023-04-29T06:30:19;8.75;6.25;5.00
29460;PMS7003;16428;47.836;35.106;2023-04-29T06:32:46;11.50;6.25;5.00
29460;PMS7003;16428;47.836;35.106;2023-04-29T06:35:13;9.50;9.50;5.50
29460;PMS7003;16428;47.836;35.106;2023-04-29T06:37:41;10.75;8.25;6.25
29460;PMS7003;16428;47.836;35.106;2023-04-29T06:40:08;14.50;9.00;7.00
29460;PMS7003;16428;47.836;35.106;2023-04-29T06:42:37;8.50;8.00;7.00
29460;PMS7003;16428;47.836;35.106;2023-04-29T06:45:04;6.50;5.50;3.75
29460;PMS7003;16428;47.836;35.106;2023-04-29T06:47:32;11.33;11.33;10.00
29460;PMS7003;16428;47.836;35.106;2023-04-29T06:50:00;9.67;6.33;5.00
29460;PMS7003;16428;47.836;35.106;2023-04-29T06:52:28;6.50;6.00;5.00
29460;PMS7003;16428;47.836;35.106;2023-04-29T06:54:55;16.67;13.00;11.00
29460;PMS7003;16428;47.836;35.106;2023-04-29T06:57:23;17.33;13.67;10.67
29460;PMS7003;16428;47.836;35.106;2023-04-29T06:59:50;11.00;7.00;4.75
29460;PMS7003;16428;47.836;35.106;2023-04-29T07:02:18;5.25;5.25;4.00
29460;PMS7003;16428;47.836;35.106;2023-04-29T07:04:45;6.25;4.25;2.75
29460;PMS7003;16428;47.836;35.106;2023-04-29T07:07:15;11.25;6.50;6.00
29460;PMS7003;16428;47.836;35.106;2023-04-29T07:09:43;7.75;7.75;6.75
29460;PMS7003;16428;47.836;35.106;2023-04-29T07:12:10;9.50;7.75;6.00
29460;PMS7003;16428;47.836;35.106;2023-04-29T07:14:38;6.50;5.00;4.00
29460;PMS7003;16428;47.836;35.106;2023-04-29T07:17:06;6.00;6.00;4.75
29460;PMS7003;16428;47.836;35.106;2023-04-29T07:19:34;6.00;6.00;5.00
29460;PMS7003;16428;47.836;35.106;2023-04-29T07:22:01;4.75;4.75;4.00
29460;PMS7003;16428;47.836;35.106;2023-04-29T07:24:30;3.25;3.25;3.00
29460;PMS7003;16428;47.836;35.106;2023-04-29T07:26:57;24.50;21.25;18.00
29460;PMS7003;16428;47.836;35.106;2023-04-29T07:29:25;6.00;6.00;4.00
29460;PMS7003;16428;47.836;35.106;2023-04-29T07:31:52;6.25;6.25;5.00
29460;PMS7003;16428;47.836;35.106;2023-04-29T07:34:20;8.50;5.50;4.25
29460;PMS7003;16428;47.836;35.106;2023-04-29T07:36:47;10.25;9.75;7.50
29460;PMS7003;16428;47.836;35.106;2023-04-29T07:39:14;10.25;10.00;8.00
29460;PMS7003;16428;47.836;35.106;2023-04-29T07:41:42;4.25;4.25;3.50
29460;PMS7003;16428;47.836;35.106;2023-04-29T07:44:10;7.75;4.00;3.75
29460;PMS7003;16428;47.836;35.106;2023-04-29T07:46:38;5.75;5.75;4.75
29460;PMS7003;16428;47.836;35.106;2023-04-29T07:49:05;10.00;10.00;8.75
29460;PMS7003;16428;47.836;35.106;2023-04-29T07:51:33;3.75;3.00;2.00
29460;PMS7003;16428;47.836;35.106;2023-04-29T07:54:00;4.50;4.50;4.00
29460;PMS7003;16428;47.836;35.106;2023-04-29T07:56:28;5.25;5.25;4.75
29460;PMS7003;16428;47.836;35.106;2023-04-29T07:58:56;6.50;6.50;5.50
29460;PMS7003;16428;47.836;35.106;2023-04-29T08:01:23;6.00;4.50;4.00
29460;PMS7003;16428;47.836;35.106;2023-04-29T08:03:50;5.00;5.00;4.25
29460;PMS7003;16428;47.836;35.106;2023-04-29T08:06:18;7.25;6.25;5.50
29460;PMS7003;16428;47.836;35.106;2023-04-29T08:08:48;3.75;3.75;2.75
29460;PMS7003;16428;47.836;35.106;2023-04-29T08:11:16;6.75;6.25;5.75
29460;PMS7003;16428;47.836;35.106;2023-04-29T08:13:44;8.25;8.25;7.75
29460;PMS7003;16428;47.836;35.106;2023-04-29T08:16:12;6.75;5.00;4.25
29460;PMS7003;16428;47.836;35.106;2023-04-29T08:18:40;5.00;5.00;4.00
29460;PMS7003;16428;47.836;35.106;2023-04-29T08:21:08;6.00;6.00;5.00
29460;PMS7003;16428;47.836;35.106;2023-04-29T08:23:38;5.25;5.25;4.75
29460;PMS7003;16428;47.836;35.106;2023-04-29T08:26:05;6.00;5.00;3.75
29460;PMS7003;16428;47.836;35.106;2023-04-29T08:28:33;7.25;4.00;3.00
29460;PMS7003;16428;47.836;35.106;2023-04-29T08:31:01;2.75;2.25;1.75
29460;PMS7003;16428;47.836;35.106;2023-04-29T08:33:28;5.00;5.00;4.00
29460;PMS7003;16428;47.836;35.106;2023-04-29T08:35:56;3.00;3.00;3.00
29460;PMS7003;16428;47.836;35.106;2023-04-29T08:38:26;5.75;4.25;3.25
29460;PMS7003;16428;47.836;35.106;2023-04-29T08:40:54;6.00;3.75;3.00
29460;PMS7003;16428;47.836;35.106;2023-04-29T08:43:22;3.50;2.75;2.75
29460;PMS7003;16428;47.836;35.106;2023-04-29T08:45:50;5.25;2.50;2.00
29460;PMS7003;16428;47.836;35.106;2023-04-29T08:48:18;4.25;4.25;4.00
29460;PMS7003;16428;47.836;35.106;2023-04-29T08:50:46;4.50;3.25;2.50
29460;PMS7003;16428;47.836;35.106;2023-04-29T08:53:14;6.75;4.25;4.25
29460;PMS7003;16428;47.836;35.106;2023-04-29T08:55:45;3.00;3.00;2.25
29460;PMS7003;16428;47.836;35.106;2023-04-29T08:58:14;11.00;7.00;4.75
29460;PMS7003;16428;47.836;35.106;2023-04-29T09:00:42;5.75;5.75;4.50
29460;PMS7003;16428;47.836;35.106;2023-04-29T09:03:13;4.25;4.25;2.50
29460;PMS7003;16428;47.836;35.106;2023-04-29T09:05:48;5.00;5.00;4.00
29460;PMS7003;16428;47.836;35.106;2023-04-29T09:08:19;4.25;4.25;3.75
29460;PMS7003;16428;47.836;35.106;2023-04-29T09:10:51;8.50;6.00;4.25
29460;PMS7003;16428;47.836;35.106;2023-04-29T09:13:23;5.75;5.75;4.00
29460;PMS7003;16428;47.836;35.106;2023-04-29T09:15:51;9.50;7.75;6.25
29460;PMS7003;16428;47.836;35.106;2023-04-29T09:21:13;4.50;4.50;3.00
29460;PMS7003;16428;47.836;35.106;2023-04-29T09:23:41;5.00;5.00;3.00
29460;PMS7003;16428;47.836;35.106;2023-04-29T09:26:09;5.75;5.75;5.00
29460;PMS7003;16428;47.836;35.106;2023-04-29T09:28:36;5.00;5.00;4.00
29460;PMS7003;16428;47.836;35.106;2023-04-29T09:31:05;5.50;5.50;4.50
29460;PMS7003;16428;47.836;35.106;2023-04-29T09:33:50;8.00;8.00;7.00
29460;PMS7003;16428;47.836;35.106;2023-04-29T09:39:01;5.00;4.67;3.67
29460;PMS7003;16428;47.836;35.106;2023-04-29T09:41:29;5.50;5.50;4.50
29460;PMS7003;16428;47.836;35.106;2023-04-29T09:44:03;4.50;3.50;3.50
29460;PMS7003;16428;47.836;35.106;2023-04-29T09:46:34;6.25;5.50;4.00
29460;PMS7003;16428;47.836;35.106;2023-04-29T09:49:03;7.00;6.50;5.50
29460;PMS7003;16428;47.836;35.106;2023-04-29T09:54:28;8.00;8.00;6.25
29460;PMS7003;16428;47.836;35.106;2023-04-29T09:56:57;8.00;7.50;5.75
29460;PMS7003;16428;47.836;35.106;2023-04-29T09:59:28;10.50;8.75;6.75
29460;PMS7003;16428;47.836;35.106;2023-04-29T10:01:56;10.00;5.25;5.00
29460;PMS7003;16428;47.836;35.106;2023-04-29T10:04:25;7.50;7.50;6.00
29460;PMS7003;16428;47.836;35.106;2023-04-29T10:06:54;12.00;11.50;8.00
29460;PMS7003;16428;47.836;35.106;2023-04-29T10:09:22;5.50;5.50;4.75
29460;PMS7003;16428;47.836;35.106;2023-04-29T10:11:51;10.00;7.50;6.25
29460;PMS7003;16428;47.836;35.106;2023-04-29T10:14:22;8.00;8.00;6.00
29460;PMS7003;16428;47.836;35.106;2023-04-29T10:20:20;7.50;7.50;6.00
29460;PMS7003;16428;47.836;35.106;2023-04-29T10:22:39;5.50;5.25;4.75
29460;PMS7003;16428;47.836;35.106;2023-04-29T10:25:10;10.00;10.00;7.25
29460;PMS7003;16428;47.836;35.106;2023-04-29T10:27:38;7.50;7.00;5.50
29460;PMS7003;16428;47.836;35.106;2023-04-29T10:30:08;8.25;7.00;4.75
29460;PMS7003;16428;47.836;35.106;2023-04-29T10:32:40;11.00;10.25;7.75
29460;PMS7003;16428;47.836;35.106;2023-04-29T10:35:17;6.75;5.75;4.75
29460;PMS7003;16428;47.836;35.106;2023-04-29T10:37:46;6.50;6.50;4.75
29460;PMS7003;16428;47.836;35.106;2023-04-29T10:40:30;8.50;8.50;7.25
29460;PMS7003;16428;47.836;35.106;2023-04-29T10:43:07;9.25;9.25;7.00
29460;PMS7003;16428;47.836;35.106;2023-04-29T10:45:34;8.75;8.75;7.25
29460;PMS7003;16428;47.836;35.106;2023-04-29T10:50:32;7.25;7.25;6.50
29460;PMS7003;16428;47.836;35.106;2023-04-29T10:53:00;5.75;5.75;4.50
29460;PMS7003;16428;47.836;35.106;2023-04-29T10:55:30;6.25;6.25;5.25
29460;PMS7003;16428;47.836;35.106;2023-04-29T10:58:02;6.50;6.25;4.75
29460;PMS7003;16428;47.836;35.106;2023-04-29T11:00:31;8.25;8.25;6.75
29460;PMS7003;16428;47.836;35.106;2023-04-29T11:03:01;9.25;5.75;5.50
29460;PMS7003;16428;47.836;35.106;2023-04-29T11:05:35;8.00;8.00;6.50
29460;PMS7003;16428;47.836;35.106;2023-04-29T11:08:10;5.75;5.75;4.75
29460;PMS7003;16428;47.836;35.106;2023-04-29T11:10:39;6.25;6.25;5.50
29460;PMS7003;16428;47.836;35.106;2023-04-29T11:16:11;3.75;3.75;3.00
29460;PMS7003;16428;47.836;35.106;2023-04-29T11:21:41;6.00;3.50;2.25
29460;PMS7003;16428;47.836;35.106;2023-04-29T11:24:11;4.00;4.00;3.25
29460;PMS7003;16428;47.836;35.106;2023-04-29T11:26:42;3.25;3.25;2.50
29460;PMS7003;16428;47.836;35.106;2023-04-29T11:29:10;7.00;4.25;4.00
29460;PMS7003;16428;47.836;35.106;2023-04-29T11:31:38;3.00;3.00;3.00
29460;PMS7003;16428;47.836;35.106;2023-04-29T11:34:05;5.00;5.00;4.75
29460;PMS7003;16428;47.836;35.106;2023-04-29T11:36:33;4.00;4.00;3.50
29460;PMS7003;16428;47.836;35.106;2023-04-29T11:39:02;7.50;6.75;5.00
29460;PMS7003;16428;47.836;35.106;2023-04-29T11:41:31;6.00;5.50;4.50
29460;PMS7003;16428;47.836;35.106;2023-04-29T11:43:58;5.25;5.25;4.25
29460;PMS7003;16428;47.836;35.106;2023-04-29T11:46:29;6.00;6.00;4.50
29460;PMS7003;16428;47.836;35.106;2023-04-29T11:48:57;7.25;6.75;6.25
29460;PMS7003;16428;47.836;35.106;2023-04-29T11:51:28;4.25;4.25;3.25
29460;PMS7003;16428;47.836;35.106;2023-04-29T11:53:56;6.50;3.75;2.50
29460;PMS7003;16428;47.836;35.106;2023-04-29T11:56:26;6.25;6.25;5.25
29460;PMS7003;16428;47.836;35.106;2023-04-29T11:58:54;3.50;3.50;3.00
29460;PMS7003;16428;47.836;35.106;2023-04-29T12:01:24;5.00;5.00;4.25
29460;PMS7003;16428;47.836;35.106;2023-04-29T12:03:56;6.50;5.00;4.75
29460;PMS7003;16428;47.836;35.106;2023-04-29T12:06:29;9.00;8.00;6.50
29460;PMS7003;16428;47.836;35.106;2023-04-29T12:08:59;6.00;6.00;4.75
29460;PMS7003;16428;47.836;35.106;2023-04-29T12:11:27;6.50;6.50;5.50
29460;PMS7003;16428;47.836;35.106;2023-04-29T12:13:55;9.00;7.00;6.00
29460;PMS7003;16428;47.836;35.106;2023-04-29T12:16:24;7.75;5.00;4.75
29460;PMS7003;16428;47.836;35.106;2023-04-29T12:18:51;7.50;6.50;5.75
29460;PMS7003;16428;47.836;35.106;2023-04-29T12:21:22;6.00;5.00;4.50
29460;PMS7003;16428;47.836;35.106;2023-04-29T12:23:50;5.00;4.00;4.00
29460;PMS7003;16428;47.836;35.106;2023-04-29T12:26:18;6.25;6.00;4.75
29460;PMS7003;16428;47.836;35.106;2023-04-29T12:28:52;4.75;4.75;4.00
29460;PMS7003;16428;47.836;35.106;2023-04-29T12:31:21;6.50;4.25;4.00
29460;PMS7003;16428;47.836;35.106;2023-04-29T12:33:52;5.25;5.25;4.00
29460;PMS7003;16428;47.836;35.106;2023-04-29T12:36:21;6.00;6.00;4.67
29460;PMS7003;16428;47.836;35.106;2023-04-29T12:38:49;8.25;5.75;5.25
29460;PMS7003;16428;47.836;35.106;2023-04-29T12:41:18;6.00;6.00;5.00
29460;PMS7003;16428;47.836;35.106;2023-04-29T12:43:47;5.50;5.50;4.75
29460;PMS7003;16428;47.836;35.106;2023-04-29T12:46:16;6.50;6.50;5.50
29460;PMS7003;16428;47.836;35.106;2023-04-29T12:48:46;10.75;7.25;5.00
29460;PMS7003;16428;47.836;35.106;2023-04-29T12:51:15;3.25;3.25;2.25
29460;PMS7003;16428;47.836;35.106;2023-04-29T12:53:42;9.50;8.25;6.25
29460;PMS7003;16428;47.836;35.106;2023-04-29T12:56:10;4.00;3.75;3.00
29460;PMS7003;16428;47.836;35.106;2023-04-29T12:58:38;5.75;5.75;5.25
29460;PMS7003;16428;47.836;35.106;2023-04-29T13:01:05;9.50;7.25;5.50
29460;PMS7003;16428;47.836;35.106;2023-04-29T13:03:33;5.75;5.75;5.00
29460;PMS7003;16428;47.836;35.106;2023-04-29T13:06:02;5.00;5.00;4.25
29460;PMS7003;16428;47.836;35.106;2023-04-29T13:08:29;8.50;6.00;5.00
29460;PMS7003;16428;47.836;35.106;2023-04-29T13:10:57;6.75;4.75;4.00
29460;PMS7003;16428;47.836;35.106;2023-04-29T13:13:24;8.75;5.75;5.50
29460;PMS7003;16428;47.836;35.106;2023-04-29T13:15:53;6.00;6.00;5.25
29460;PMS7003;16428;47.836;35.106;2023-04-29T13:18:20;7.00;7.00;5.25
29460;PMS7003;16428;47.836;35.106;2023-04-29T13:20:48;7.75;7.75;6.50
29460;PMS7003;16428;47.836;35.106;2023-04-29T13:23:18;8.75;8.75;7.75
29460;PMS7003;16428;47.836;35.106;2023-04-29T13:25:46;5.25;5.25;5.00
29460;PMS7003;16428;47.836;35.106;2023-04-29T13:28:16;5.25;5.25;4.00
29460;PMS7003;16428;47.836;35.106;2023-04-29T13:30:43;7.50;6.00;5.00
29460;PMS7003;16428;47.836;35.106;2023-04-29T13:33:11;8.25;6.00;5.25
29460;PMS7003;16428;47.836;35.106;2023-04-29T13:35:39;11.50;10.50;9.00
29460;PMS7003;16428;47.836;35.106;2023-04-29T13:38:08;8.00;7.25;5.75
29460;PMS7003;16428;47.836;35.106;2023-04-29T13:40:35;7.00;7.00;6.00
29460;PMS7003;16428;47.836;35.106;2023-04-29T13:43:10;7.00;7.00;4.75
29460;PMS7003;16428;47.836;35.106;2023-04-29T13:45:41;4.75;4.75;4.00
29460;PMS7003;16428;47.836;35.106;2023-04-29T13:48:13;5.25;5.25;4.50
29460;PMS7003;16428;47.836;35.106;2023-04-29T13:51:01;5.00;5.00;4.50
29460;PMS7003;16428;47.836;35.106;2023-04-29T13:53:31;6.25;6.25;5.00
29460;PMS7003;16428;47.836;35.106;2023-04-29T13:56:19;5.50;4.50;3.50
29460;PMS7003;16428;47.836;35.106;2023-04-29T13:58:50;6.00;6.00;5.00
29460;PMS7003;16428;47.836;35.106;2023-04-29T14:01:38;8.75;6.75;5.75
29460;PMS7003;16428;47.836;35.106;2023-04-29T14:04:26;7.00;6.00;5.50
29460;PMS7003;16428;47.836;35.106;2023-04-29T14:06:54;6.25;5.75;5.00
29460;PMS7003;16428;47.836;35.106;2023-04-29T14:09:22;8.75;6.75;6.25
29460;PMS7003;16428;47.836;35.106;2023-04-29T14:11:50;7.00;7.00;6.50
29460;PMS7003;16428;47.836;35.106;2023-04-29T14:14:17;6.00;6.00;5.00
29460;PMS7003;16428;47.836;35.106;2023-04-29T14:16:45;5.50;5.50;4.25
29460;PMS7003;16428;47.836;35.106;2023-04-29T14:19:12;9.50;7.00;4.75
29460;PMS7003;16428;47.836;35.106;2023-04-29T14:21:40;7.75;6.75;5.25
29460;PMS7003;16428;47.836;35.106;2023-04-29T14:24:07;5.75;5.75;5.00
29460;PMS7003;16428;47.836;35.106;2023-04-29T14:26:35;8.00;8.00;7.00
29460;PMS7003;16428;47.836;35.106;2023-04-29T14:29:03;5.00;5.00;3.75
29460;PMS7003;16428;47.836;35.106;2023-04-29T14:31:33;5.75;4.25;4.00
29460;PMS7003;16428;47.836;35.106;2023-04-29T14:34:04;3.75;3.75;3.50
29460;PMS7003;16428;47.836;35.106;2023-04-29T14:36:34;9.25;7.50;6.00
29460;PMS7003;16428;47.836;35.106;2023-04-29T14:39:01;9.50;6.75;5.25
29460;PMS7003;16428;47.836;35.106;2023-04-29T14:41:30;9.25;7.25;6.25
29460;PMS7003;16428;47.836;35.106;2023-04-29T14:43:57;7.00;7.00;6.00
29460;PMS7003;16428;47.836;35.106;2023-04-29T14:46:25;9.50;9.00;7.00
29460;PMS7003;16428;47.836;35.106;2023-04-29T14:48:55;8.00;7.50;5.75
29460;PMS7003;16428;47.836;35.106;2023-04-29T14:51:22;7.25;7.00;6.00
29460;PMS7003;16428;47.836;35.106;2023-04-29T14:53:49;9.00;6.75;5.75
29460;PMS7003;16428;47.836;35.106;2023-04-29T14:56:17;9.25;7.50;5.75
29460;PMS7003;16428;47.836;35.106;2023-04-29T14:58:45;7.50;6.00;5.50
29460;PMS7003;16428;47.836;35.106;2023-04-29T15:01:12;9.00;8.50;6.50
29460;PMS7003;16428;47.836;35.106;2023-04-29T15:03:40;7.50;7.00;6.00
29460;PMS7003;16428;47.836;35.106;2023-04-29T15:06:10;3.75;3.75;3.25
29460;PMS7003;16428;47.836;35.106;2023-04-29T15:08:39;10.50;9.00;7.75
29460;PMS7003;16428;47.836;35.106;2023-04-29T15:11:06;8.00;6.25;5.25